sensor_id;sensor_type;location;lat;lon;timestamp;pressure;altitude;pressure_sealevel;temperature;humidity
16148;BME280;8179;59.364;18.018;2024-03-23T00:52:54;99239.06;;;3.59;100.00
16148;BME280;8179;59.364;18.018;2024-03-23T00:55:21;99232.66;;;3.60;100.00
16148;BME280;8179;59.364;18.018;2024-03-23T00:57:46;99225.63;;;3.59;100.00
16148;BME280;8179;59.364;18.018;2024-03-23T01:00:14;99232.63;;;3.55;100.00
16148;BME280;8179;59.364;18.018;2024-03-23T01:02:41;99236.41;;;3.54;100.00
16148;BME280;8179;59.364;18.018;2024-03-23T01:05:08;99233.16;;;3.52;100.00
16148;BME280;8179;59.364;18.018;2024-03-23T01:07:34;99223.19;;;3.42;100.00
16148;BME280;8179;59.364;18.018;2024-03-23T01:10:02;99239.03;;;3.44;100.00
16148;BME280;8179;59.364;18.018;2024-03-23T01:12:29;99229.91;;;3.45;100.00
16148;BME280;8179;59.364;18.018;2024-03-23T01:14:56;99222.94;;;3.39;100.00
16148;BME280;8179;59.364;18.018;2024-03-23T01:17:22;99226.41;;;3.34;100.00
16148;BME280;8179;59.364;18.018;2024-03-23T01:19:48;99226.41;;;3.34;100.00
16148;BME280;8179;59.364;18.018;2024-03-23T01:22:14;99218.59;;;3.27;100.00
16148;BME280;8179;59.364;18.018;2024-03-23T01:24:41;99222.34;;;3.26;100.00
16148;BME280;8179;59.364;18.018;2024-03-23T01:27:09;99225.84;;;3.27;100.00
16148;BME280;8179;59.364;18.018;2024-03-23T01:29:35;99224.19;;;3.21;100.00
16148;BME280;8179;59.364;18.018;2024-03-23T01:32:01;99232.25;;;3.21;100.00
16148;BME280;8179;59.364;18.018;2024-03-23T01:34:28;99231.44;;;3.20;100.00
16148;BME280;8179;59.364;18.018;2024-03-23T01:36:54;99227.97;;;3.20;100.00
16148;BME280;8179;59.364;18.018;2024-03-23T01:39:21;99236.25;;;3.13;100.00
16148;BME280;8179;59.364;18.018;2024-03-23T01:41:46;99240.03;;;3.12;100.00
16148;BME280;8179;59.364;18.018;2024-03-23T01:44:15;99237.59;;;3.11;100.00
16148;BME280;8179;59.364;18.018;2024-03-23T01:46:41;99235.97;;;3.10;100.00
16148;BME280;8179;59.364;18.018;2024-03-23T01:49:08;99242.13;;;3.05;100.00
16148;BME280;8179;59.364;18.018;2024-03-23T01:51:35;99234.59;;;3.02;100.00
16148;BME280;8179;59.364;18.018;2024-03-23T01:54:03;99244.25;;;2.98;100.00
16148;BME280;8179;59.364;18.018;2024-03-23T01:56:29;99228.94;;;2.98;100.00
16148;BME280;8179;59.364;18.018;2024-03-23T01:58:58;99238.03;;;2.92;100.00
16148;BME280;8179;59.364;18.018;2024-03-23T02:01:25;99232.94;;;2.91;100.00
16148;BME280;8179;59.364;18.018;2024-03-23T02:03:52;99240.72;;;2.92;100.00
16148;BME280;8179;59.364;18.018;2024-03-23T02:06:18;99235.59;;;2.86;100.00
16148;BME280;8179;59.364;18.018;2024-03-23T02:08:44;99239.88;;;2.87;100.00
16148;BME280;8179;59.364;18.018;2024-03-23T02:11:10;99231.28;;;2.85;100.00
16148;BME280;8179;59.364;18.018;2024-03-23T02:13:37;99238.28;;;2.86;100.00
16148;BME280;8179;59.364;18.018;2024-03-23T02:16:04;99220.75;;;2.73;100.00
16148;BME280;8179;59.364;18.018;2024-03-23T02:18:33;99239.59;;;2.78;100.00
16148;BME280;8179;59.364;18.018;2024-03-23T02:20:59;99237.66;;;2.73;100.00
16148;BME280;8179;59.364;18.018;2024-03-23T02:23:27;99232.03;;;2.70;100.00
16148;BME280;8179;59.364;18.018;2024-03-23T02:25:53;99241.97;;;2.69;100.00
16148;BME280;8179;59.364;18.018;2024-03-23T02:28:20;99234.66;;;2.65;100.00
16148;BME280;8179;59.364;18.018;2024-03-23T02:30:47;99234.16;;;2.68;100.00
16148;BME280;8179;59.364;18.018;2024-03-23T02:33:15;99247.81;;;2.66;100.00
16148;BME280;8179;59.364;18.018;2024-03-23T02:35:40;99231.72;;;2.61;100.00
16148;BME280;8179;59.364;18.018;2024-03-23T02:38:07;99240.84;;;2.65;100.00
16148;BME280;8179;59.364;18.018;2024-03-23T02:40:34;99248.63;;;2.62;100.00
16148;BME280;8179;59.364;18.018;2024-03-23T02:43:02;99239.19;;;2.59;100.00
16148;BME280;8179;59.364;18.018;2024-03-23T02:45:28;99239.72;;;2.56;100.00
16148;BME280;8179;59.364;18.018;2024-03-23T02:47:55;99232.47;;;2.57;100.00
16148;BME280;8179;59.364;18.018;2024-03-23T02:50:21;99230.56;;;2.47;100.00
16148;BME280;8179;59.364;18.018;2024-03-23T02:52:48;99231.91;;;2.50;100.00
16148;BME280;8179;59.364;18.018;2024-03-23T02:55:14;99234.84;;;2.48;100.00
16148;BME280;8179;59.364;18.018;2024-03-23T02:57:42;99224.34;;;2.46;100.00
16148;BME280;8179;59.364;18.018;2024-03-23T03:00:09;99232.41;;;2.46;100.00
16148;BME280;8179;59.364;18.018;2024-03-23T03:02:36;99236.41;;;2.44;100.00
16148;BME280;8179;59.364;18.018;2024-03-23T03:05:03;99224.88;;;2.43;100.00
16148;BME280;8179;59.364;18.018;2024-03-23T03:07:30;99235.66;;;2.48;100.00
16148;BME280;8179;59.364;18.018;2024-03-23T03:09:56;99229.44;;;2.43;100.00
16148;BME280;8179;59.364;18.018;2024-03-23T03:12:23;99190.34;;;2.15;100.00
16148;BME280;8179;59.364;18.018;2024-03-23T03:14:50;99227.78;;;2.37;100.00
16148;BME280;8179;59.364;18.018;2024-03-23T03:17:17;99217.59;;;2.39;100.00
16148;BME280;8179;59.364;18.018;2024-03-23T03:19:42;99214.91;;;2.39;100.00
16148;BME280;8179;59.364;18.018;2024-03-23T03:22:11;99221.63;;;2.36;100.00
16148;BME280;8179;59.364;18.018;2024-03-23T03:24:36;99223.50;;;2.36;100.00
16148;BME280;8179;59.364;18.018;2024-03-23T03:27:03;99215.41;;;2.31;100.00
16148;BME280;8179;59.364;18.018;2024-03-23T03:29:29;99221.84;;;2.30;100.00
16148;BME280;8179;59.364;18.018;2024-03-23T03:32:02;99220.75;;;2.26;100.00
16148;BME280;8179;59.364;18.018;2024-03-23T03:34:28;99221.78;;;2.25;100.00
16148;BME280;8179;59.364;18.018;2024-03-23T03:36:57;99218.31;;;2.24;100.00
16148;BME280;8179;59.364;18.018;2024-03-23T03:39:23;99219.91;;;2.20;100.00
16148;BME280;8179;59.364;18.018;2024-03-23T03:41:50;99225.22;;;2.15;100.00
16148;BME280;8179;59.364;18.018;2024-03-23T03:44:16;99221.19;;;2.17;100.00
16148;BME280;8179;59.364;18.018;2024-03-23T03:46:43;99223.66;;;2.19;100.00
16148;BME280;8179;59.364;18.018;2024-03-23T03:49:10;99219.59;;;2.16;100.00
16148;BME280;8179;59.364;18.018;2024-03-23T03:51:37;99227.09;;;2.14;100.00
16148;BME280;8179;59.364;18.018;2024-03-23T03:54:03;99225.47;;;2.13;100.00
16148;BME280;8179;59.364;18.018;2024-03-23T03:56:29;99226.81;;;2.16;100.00
16148;BME280;8179;59.364;18.018;2024-03-23T03:58:55;99218.50;;;2.12;100.00
16148;BME280;8179;59.364;18.018;2024-03-23T04:01:22;99221.69;;;2.09;100.00
16148;BME280;8179;59.364;18.018;2024-03-23T04:03:48;99220.34;;;2.07;100.00
16148;BME280;8179;59.364;18.018;2024-03-23T04:06:20;99212.25;;;2.02;100.00
16148;BME280;8179;59.364;18.018;2024-03-23T04:08:46;99232.94;;;2.06;100.00
16148;BME280;8179;59.364;18.018;2024-03-23T04:11:13;99227.00;;;2.04;100.00
16148;BME280;8179;59.364;18.018;2024-03-23T04:13:39;99224.88;;;2.06;100.00
16148;BME280;8179;59.364;18.018;2024-03-23T04:16:07;99227.84;;;2.05;100.00
16148;BME280;8179;59.364;18.018;2024-03-23T04:18:32;99235.88;;;2.05;100.00
16148;BME280;8179;59.364;18.018;2024-03-23T04:20:59;99235.56;;;2.01;100.00
16148;BME280;8179;59.364;18.018;2024-03-23T04:23:26;99233.94;;;2.00;100.00
16148;BME280;8179;59.364;18.018;2024-03-23T04:25:53;99236.91;;;2.04;100.00
16148;BME280;8179;59.364;18.018;2024-03-23T04:28:19;99230.19;;;2.01;100.00
16148;BME280;8179;59.364;18.018;2024-03-23T04:30:46;99235.56;;;2.01;100.00
16148;BME280;8179;59.364;18.018;2024-03-23T04:33:12;99226.41;;;1.97;100.00
16148;BME280;8179;59.364;18.018;2024-03-23T04:35:39;99235.00;;;1.99;100.00
16148;BME280;8179;59.364;18.018;2024-03-23T04:38:05;99232.34;;;1.99;100.00
16148;BME280;8179;59.364;18.018;2024-03-23T04:40:33;99236.88;;;1.99;100.00
16148;BME280;8179;59.364;18.018;2024-03-23T04:43:00;99221.31;;;1.96;100.00
16148;BME280;8179;59.364;18.018;2024-03-23T04:45:26;99229.91;;;1.98;100.00
16148;BME280;8179;59.364;18.018;2024-03-23T04:47:53;99221.31;;;1.96;100.00
16148;BME280;8179;59.364;18.018;2024-03-23T04:50:20;99227.72;;;1.95;100.00
16148;BME280;8179;59.364;18.018;2024-03-23T04:52:47;99231.25;;;2.00;100.00
16148;BME280;8179;59.364;18.018;2024-03-23T04:55:14;99229.38;;;2.01;100.00
16148;BME280;8179;59.364;18.018;2024-03-23T04:57:42;99232.88;;;2.01;100.00
16148;BME280;8179;59.364;18.018;2024-03-23T05:00:10;99230.19;;;2.01;100.00
16148;BME280;8179;59.364;18.018;2024-03-23T05:02:43;99233.41;;;2.03;100.00
16148;BME280;8179;59.364;18.018;2024-03-23T05:05:10;99228.88;;;2.04;100.00
16148;BME280;8179;59.364;18.018;2024-03-23T05:07:36;99226.75;;;2.06;100.00
16148;BME280;8179;59.364;18.018;2024-03-23T05:10:03;99225.44;;;2.08;100.00
16148;BME280;8179;59.364;18.018;2024-03-23T05:12:29;99230.78;;;2.08;100.00
16148;BME280;8179;59.364;18.018;2024-03-23T05:14:58;99231.09;;;2.12;100.00
16148;BME280;8179;59.364;18.018;2024-03-23T05:17:23;99234.31;;;2.14;100.00
16148;BME280;8179;59.364;18.018;2024-03-23T05:19:50;99242.09;;;2.15;100.00
16148;BME280;8179;59.364;18.018;2024-03-23T05:22:16;99247.22;;;2.17;100.00
16148;BME280;8179;59.364;18.018;2024-03-23T05:24:44;99245.34;;;2.17;100.00
16148;BME280;8179;59.364;18.018;2024-03-23T05:27:10;99240.56;;;2.25;100.00
16148;BME280;8179;59.364;18.018;2024-03-23T05:29:37;99244.31;;;2.24;100.00
16148;BME280;8179;59.364;18.018;2024-03-23T05:32:05;99237.59;;;2.21;100.00
16148;BME280;8179;59.364;18.018;2024-03-23T05:34:32;99246.78;;;2.30;100.00
16148;BME280;8179;59.364;18.018;2024-03-23T05:36:57;99243.34;;;2.35;100.00
16148;BME280;8179;59.364;18.018;2024-03-23T05:39:24;99236.31;;;2.29;100.00
16148;BME280;8179;59.364;18.018;2024-03-23T05:41:50;99237.97;;;2.35;100.00
16148;BME280;8179;59.364;18.018;2024-03-23T05:44:17;99231.22;;;2.27;100.00
16148;BME280;8179;59.364;18.018;2024-03-23T05:46:44;99255.16;;;2.39;100.00
16148;BME280;8179;59.364;18.018;2024-03-23T05:49:15;99243.66;;;2.43;100.00
16148;BME280;8179;59.364;18.018;2024-03-23T05:51:41;99234.28;;;2.46;100.00
16148;BME280;8179;59.364;18.018;2024-03-23T05:54:08;99240.75;;;2.50;100.00
16148;BME280;8179;59.364;18.018;2024-03-23T05:56:35;99237.00;;;2.51;100.00
16148;BME280;8179;59.364;18.018;2024-03-23T05:59:00;99231.63;;;2.51;100.00
16148;BME280;8179;59.364;18.018;2024-03-23T06:01:28;99235.44;;;2.60;100.00
16148;BME280;8179;59.364;18.018;2024-03-23T06:03:54;99243.00;;;2.63;100.00
16148;BME280;8179;59.364;18.018;2024-03-23T06:06:22;99242.50;;;2.71;100.00
16148;BME280;8179;59.364;18.018;2024-03-23T06:08:49;99240.66;;;2.77;100.00
16148;BME280;8179;59.364;18.018;2024-03-23T06:11:16;99238.78;;;2.78;100.00
16148;BME280;8179;59.364;18.018;2024-03-23T06:13:41;99240.94;;;2.81;100.00
16148;BME280;8179;59.364;18.018;2024-03-23T06:16:08;99237.75;;;2.84;100.00
16148;BME280;8179;59.364;18.018;2024-03-23T06:18:34;99243.41;;;2.92;100.00
16148;BME280;8179;59.364;18.018;2024-03-23T06:21:01;99247.72;;;2.93;100.00
16148;BME280;8179;59.364;18.018;2024-03-23T06:23:28;99238.84;;;2.93;100.00
16148;BME280;8179;59.364;18.018;2024-03-23T06:25:55;99252.31;;;3.03;100.00
16148;BME280;8179;59.364;18.018;2024-03-23T06:28:20;99246.44;;;3.06;100.00
16148;BME280;8179;59.364;18.018;2024-03-23T06:30:47;99234.34;;;3.09;100.00
16148;BME280;8179;59.364;18.018;2024-03-23T06:33:13;99239.47;;;3.10;100.00
16148;BME280;8179;59.364;18.018;2024-03-23T06:35:40;99251.03;;;3.16;100.00
16148;BME280;8179;59.364;18.018;2024-03-23T06:38:06;99248.34;;;3.16;100.00
16148;BME280;8179;59.364;18.018;2024-03-23T06:40:36;99249.44;;;3.20;100.00
16148;BME280;8179;59.364;18.018;2024-03-23T06:43:01;99252.63;;;3.17;100.00
16148;BME280;8179;59.364;18.018;2024-03-23T06:45:28;99258.38;;;3.41;100.00
16148;BME280;8179;59.364;18.018;2024-03-23T06:47:54;99264.91;;;3.65;100.00
16148;BME280;8179;59.364;18.018;2024-03-23T06:50:23;99261.97;;;3.87;100.00
16148;BME280;8179;59.364;18.018;2024-03-23T06:52:49;99266.06;;;3.95;100.00
16148;BME280;8179;59.364;18.018;2024-03-23T06:55:15;99260.94;;;4.03;100.00
16148;BME280;8179;59.364;18.018;2024-03-23T06:57:43;99253.16;;;4.02;100.00
16148;BME280;8179;59.364;18.018;2024-03-23T07:00:11;99267.69;;;4.16;100.00
16148;BME280;8179;59.364;18.018;2024-03-23T07:02:39;99271.97;;;4.27;100.00
16148;BME280;8179;59.364;18.018;2024-03-23T07:05:05;99268.22;;;4.33;100.00
16148;BME280;8179;59.364;18.018;2024-03-23T07:07:32;99278.16;;;4.43;100.00
16148;BME280;8179;59.364;18.018;2024-03-23T07:09:58;99277.34;;;4.43;100.00
16148;BME280;8179;59.364;18.018;2024-03-23T07:12:25;99167.09;;;3.81;100.00
16148;BME280;8179;59.364;18.018;2024-03-23T07:14:52;99275.72;;;4.57;100.00
16148;BME280;8179;59.364;18.018;2024-03-23T07:17:19;99274.91;;;4.66;100.00
16148;BME280;8179;59.364;18.018;2024-03-23T07:19:46;99268.97;;;4.75;100.00
16148;BME280;8179;59.364;18.018;2024-03-23T07:22:13;99274.06;;;4.86;100.00
16148;BME280;8179;59.364;18.018;2024-03-23T07:24:40;99272.44;;;4.85;100.00
16148;BME280;8179;59.364;18.018;2024-03-23T07:27:07;99263.28;;;4.91;100.00
16148;BME280;8179;59.364;18.018;2024-03-23T07:29:35;99251.97;;;4.84;100.00
16148;BME280;8179;59.364;18.018;2024-03-23T07:32:04;99278.34;;;5.03;100.00
16148;BME280;8179;59.364;18.018;2024-03-23T07:34:30;99269.44;;;5.02;100.00
16148;BME280;8179;59.364;18.018;2024-03-23T07:36:57;99282.66;;;4.99;100.00
16148;BME280;8179;59.364;18.018;2024-03-23T07:39:22;99262.19;;;5.03;100.00
16148;BME280;8179;59.364;18.018;2024-03-23T07:41:50;99270.19;;;5.18;100.00
16148;BME280;8179;59.364;18.018;2024-03-23T07:44:16;99267.72;;;5.27;100.00
16148;BME280;8179;59.364;18.018;2024-03-23T07:46:42;99266.34;;;5.34;100.00
16148;BME280;8179;59.364;18.018;2024-03-23T07:49:10;99229.28;;;5.11;100.00
16148;BME280;8179;59.364;18.018;2024-03-23T07:51:36;99276.03;;;5.45;100.00
16148;BME280;8179;59.364;18.018;2024-03-23T07:54:04;99253.44;;;5.31;100.00
16148;BME280;8179;59.364;18.018;2024-03-23T07:56:31;99261.47;;;5.46;100.00
16148;BME280;8179;59.364;18.018;2024-03-23T07:58:57;99245.81;;;5.48;100.00
16148;BME280;8179;59.364;18.018;2024-03-23T08:01:24;99254.44;;;5.50;100.00
16148;BME280;8179;59.364;18.018;2024-03-23T08:03:50;99255.97;;;5.67;100.00
16148;BME280;8179;59.364;18.018;2024-03-23T08:06:19;99243.50;;;5.76;100.00
16148;BME280;8179;59.364;18.018;2024-03-23T08:08:46;99271.72;;;5.89;100.00
16148;BME280;8179;59.364;18.018;2024-03-23T08:11:13;99260.22;;;5.78;100.00
16148;BME280;8179;59.364;18.018;2024-03-23T08:13:40;99236.19;;;5.82;100.00
16148;BME280;8179;59.364;18.018;2024-03-23T08:16:07;99231.84;;;5.86;100.00
16148;BME280;8179;59.364;18.018;2024-03-23T08:18:34;99253.28;;;6.06;100.00
16148;BME280;8179;59.364;18.018;2024-03-23T08:21:02;99252.22;;;6.07;100.00
16148;BME280;8179;59.364;18.018;2024-03-23T08:23:31;99268.03;;;6.19;100.00
16148;BME280;8179;59.364;18.018;2024-03-23T08:25:59;99265.88;;;6.21;100.00
16148;BME280;8179;59.364;18.018;2024-03-23T08:28:25;99250.75;;;6.20;100.00
16148;BME280;8179;59.364;18.018;2024-03-23T08:30:53;99264.69;;;6.32;100.00
16148;BME280;8179;59.364;18.018;2024-03-23T08:33:18;99266.84;;;6.35;100.00
16148;BME280;8179;59.364;18.018;2024-03-23T08:35:53;99260.84;;;6.43;100.00
16148;BME280;8179;59.364;18.018;2024-03-23T08:38:19;99267.81;;;6.49;100.00
16148;BME280;8179;59.364;18.018;2024-03-23T08:40:48;99258.75;;;6.35;100.00
16148;BME280;8179;59.364;18.018;2024-03-23T08:43:21;99269.63;;;6.25;100.00
16148;BME280;8179;59.364;18.018;2024-03-23T08:45:48;99255.09;;;6.21;100.00
16148;BME280;8179;59.364;18.018;2024-03-23T08:48:14;99259.88;;;6.29;100.00
16148;BME280;8179;59.364;18.018;2024-03-23T08:50:41;99208.25;;;6.07;100.00
16148;BME280;8179;59.364;18.018;2024-03-23T08:53:08;99248.91;;;6.49;100.00
16148;BME280;8179;59.364;18.018;2024-03-23T08:55:35;99245.16;;;6.45;100.00
16148;BME280;8179;59.364;18.018;2024-03-23T08:58:03;99249.25;;;6.43;100.00
16148;BME280;8179;59.364;18.018;2024-03-23T09:00:30;99253.97;;;6.56;100.00
16148;BME280;8179;59.364;18.018;2024-03-23T09:02:57;99254.50;;;6.58;100.00
16148;BME280;8179;59.364;18.018;2024-03-23T09:05:23;99258.75;;;6.64;100.00
16148;BME280;8179;59.364;18.018;2024-03-23T09:07:49;99256.13;;;6.83;100.00
16148;BME280;8179;59.364;18.018;2024-03-23T09:10:16;99257.97;;;6.87;100.00
16148;BME280;8179;59.364;18.018;2024-03-23T09:12:42;99259.34;;;6.85;100.00
16148;BME280;8179;59.364;18.018;2024-03-23T09:15:10;99258.94;;;6.97;100.00
16148;BME280;8179;59.364;18.018;2024-03-23T09:17:36;99258.81;;;7.12;100.00
16148;BME280;8179;59.364;18.018;2024-03-23T09:20:04;99253.41;;;7.12;100.00
16148;BME280;8179;59.364;18.018;2024-03-23T09:22:30;99258.53;;;7.32;100.00
16148;BME280;8179;59.364;18.018;2024-03-23T09:24:56;99262.22;;;7.41;100.00
16148;BME280;8179;59.364;18.018;2024-03-23T09:27:22;99257.72;;;7.56;100.00
16148;BME280;8179;59.364;18.018;2024-03-23T09:29:49;99256.91;;;7.55;100.00
16148;BME280;8179;59.364;18.018;2024-03-23T09:32:16;99263.53;;;7.44;100.00
16148;BME280;8179;59.364;18.018;2024-03-23T09:34:43;99267.28;;;7.48;100.00
16148;BME280;8179;59.364;18.018;2024-03-23T09:37:09;99272.09;;;7.51;100.00
16148;BME280;8179;59.364;18.018;2024-03-23T09:39:37;99259.06;;;7.53;100.00
16148;BME280;8179;59.364;18.018;2024-03-23T09:42:04;99262.88;;;7.52;100.00
16148;BME280;8179;59.364;18.018;2024-03-23T09:44:31;99225.88;;;7.29;100.00
16148;BME280;8179;59.364;18.018;2024-03-23T09:46:57;99260.13;;;7.57;100.00
16148;BME280;8179;59.364;18.018;2024-03-23T09:49:25;99253.56;;;7.63;100.00
16148;BME280;8179;59.364;18.018;2024-03-23T09:51:51;99255.59;;;7.71;100.00
16148;BME280;8179;59.364;18.018;2024-03-23T09:54:18;99228.69;;;7.42;100.00
16148;BME280;8179;59.364;18.018;2024-03-23T09:56:44;99261.97;;;7.62;100.00
16148;BME280;8179;59.364;18.018;2024-03-23T09:59:10;99258.91;;;7.68;100.00
16148;BME280;8179;59.364;18.018;2024-03-23T10:01:36;99259.84;;;7.78;100.00
16148;BME280;8179;59.364;18.018;2024-03-23T10:04:04;99264.53;;;7.91;100.00
16148;BME280;8179;59.364;18.018;2024-03-23T10:06:31;99246.97;;;7.88;100.00
16148;BME280;8179;59.364;18.018;2024-03-23T10:08:58;99257.56;;;7.85;100.00
16148;BME280;8179;59.364;18.018;2024-03-23T10:11:23;99248.72;;;7.98;100.00
16148;BME280;8179;59.364;18.018;2024-03-23T10:13:52;99230.72;;;8.07;100.00
16148;BME280;8179;59.364;18.018;2024-03-23T10:16:22;99243.19;;;8.22;100.00
16148;BME280;8179;59.364;18.018;2024-03-23T10:18:49;99250.59;;;8.35;100.00
16148;BME280;8179;59.364;18.018;2024-03-23T10:21:16;99230.59;;;8.31;100.00
16148;BME280;8179;59.364;18.018;2024-03-23T10:23:44;99220.19;;;8.38;100.00
16148;BME280;8179;59.364;18.018;2024-03-23T10:26:15;99239.50;;;8.50;100.00
16148;BME280;8179;59.364;18.018;2024-03-23T10:29:01;99240.03;;;8.66;100.00
16148;BME280;8179;59.364;18.018;2024-03-23T10:31:27;99238.84;;;8.72;100.00
16148;BME280;8179;59.364;18.018;2024-03-23T10:33:54;99226.81;;;8.92;100.00
16148;BME280;8179;59.364;18.018;2024-03-23T10:36:20;99220.28;;;8.79;100.00
16148;BME280;8179;59.364;18.018;2024-03-23T10:38:50;99236.75;;;8.83;100.00
16148;BME280;8179;59.364;18.018;2024-03-23T10:41:16;99224.09;;;8.78;100.00
16148;BME280;8179;59.364;18.018;2024-03-23T10:43:45;99183.00;;;8.44;100.00
16148;BME280;8179;59.364;18.018;2024-03-23T10:46:11;99239.47;;;8.97;100.00
16148;BME280;8179;59.364;18.018;2024-03-23T10:48:38;99242.06;;;9.29;100.00
16148;BME280;8179;59.364;18.018;2024-03-23T10:51:06;99236.16;;;9.14;97.60
16148;BME280;8179;59.364;18.018;2024-03-23T10:53:34;99234.38;;;8.95;100.00
16148;BME280;8179;59.364;18.018;2024-03-23T10:56:04;99233.03;;;8.93;99.00
16148;BME280;8179;59.364;18.018;2024-03-23T10:58:34;99240.47;;;8.87;100.00
16148;BME280;8179;59.364;18.018;2024-03-23T11:01:02;99239.47;;;8.97;99.28
16148;BME280;8179;59.364;18.018;2024-03-23T11:03:30;99234.16;;;9.05;100.00
16148;BME280;8179;59.364;18.018;2024-03-23T11:05:56;99235.44;;;9.08;95.25
16148;BME280;8179;59.364;18.018;2024-03-23T11:08:41;99232.91;;;9.53;93.91
16148;BME280;8179;59.364;18.018;2024-03-23T11:11:21;99236.53;;;9.48;91.67
16148;BME280;8179;59.364;18.018;2024-03-23T11:13:49;99225.69;;;9.48;86.97
16148;BME280;8179;59.364;18.018;2024-03-23T11:16:17;99216.44;;;9.49;87.91
16148;BME280;8179;59.364;18.018;2024-03-23T11:18:48;99226.13;;;9.64;87.69
16148;BME280;8179;59.364;18.018;2024-03-23T11:21:51;99221.81;;;9.63;81.73
16148;BME280;8179;59.364;18.018;2024-03-23T11:24:19;99222.84;;;9.67;86.64
16148;BME280;8179;59.364;18.018;2024-03-23T11:26:47;99230.16;;;9.67;82.78
16148;BME280;8179;59.364;18.018;2024-03-23T11:29:16;99206.41;;;9.72;81.04
16148;BME280;8179;59.364;18.018;2024-03-23T11:31:46;99199.97;;;9.46;83.02
16148;BME280;8179;59.364;18.018;2024-03-23T11:34:13;99224.59;;;9.35;83.28
16148;BME280;8179;59.364;18.018;2024-03-23T11:36:40;99196.19;;;9.19;82.86
16148;BME280;8179;59.364;18.018;2024-03-23T11:39:13;99228.09;;;9.22;84.29
16148;BME280;8179;59.364;18.018;2024-03-23T11:41:49;99183.66;;;8.82;84.78
16148;BME280;8179;59.364;18.018;2024-03-23T11:44:20;99220.78;;;9.09;85.65
16148;BME280;8179;59.364;18.018;2024-03-23T11:46:46;99225.19;;;9.46;85.08
16148;BME280;8179;59.364;18.018;2024-03-23T11:49:21;99218.16;;;9.81;81.11
16148;BME280;8179;59.364;18.018;2024-03-23T11:51:47;99219.59;;;10.01;80.70
16148;BME280;8179;59.364;18.018;2024-03-23T11:54:14;99161.16;;;9.59;77.46
16148;BME280;8179;59.364;18.018;2024-03-23T11:56:40;99209.34;;;9.76;78.39
16148;BME280;8179;59.364;18.018;2024-03-23T11:59:08;99216.72;;;9.61;77.73
16148;BME280;8179;59.364;18.018;2024-03-23T12:01:37;99212.81;;;9.54;79.80
16148;BME280;8179;59.364;18.018;2024-03-23T12:04:04;99210.41;;;9.52;80.52
16148;BME280;8179;59.364;18.018;2024-03-23T12:06:30;99214.50;;;9.50;81.61
16148;BME280;8179;59.364;18.018;2024-03-23T12:09:05;99215.84;;;9.52;80.83
16148;BME280;8179;59.364;18.018;2024-03-23T12:11:31;99213.53;;;9.46;80.09
16148;BME280;8179;59.364;18.018;2024-03-23T12:13:59;99207.00;;;9.47;79.64
16148;BME280;8179;59.364;18.018;2024-03-23T12:16:27;99217.44;;;9.53;80.81
16148;BME280;8179;59.364;18.018;2024-03-23T12:19:04;99185.03;;;9.07;79.49
16148;BME280;8179;59.364;18.018;2024-03-23T12:21:30;99212.34;;;9.24;80.78
16148;BME280;8179;59.364;18.018;2024-03-23T12:23:57;99213.97;;;9.25;81.67
16148;BME280;8179;59.364;18.018;2024-03-23T12:26:24;99218.66;;;9.47;80.77
16148;BME280;8179;59.364;18.018;2024-03-23T12:28:51;99218.78;;;9.64;78.78
16148;BME280;8179;59.364;18.018;2024-03-23T12:31:16;99177.81;;;9.66;79.21
16148;BME280;8179;59.364;18.018;2024-03-23T12:33:44;99210.28;;;9.57;77.00
16148;BME280;8179;59.364;18.018;2024-03-23T12:36:10;99208.50;;;9.53;78.11
16148;BME280;8179;59.364;18.018;2024-03-23T12:38:37;99205.16;;;9.56;78.88
16148;BME280;8179;59.364;18.018;2024-03-23T12:41:03;99207.00;;;9.47;78.18
16148;BME280;8179;59.364;18.018;2024-03-23T12:43:30;99180.31;;;9.26;81.04
16148;BME280;8179;59.364;18.018;2024-03-23T12:45:56;99189.50;;;9.53;77.83
16148;BME280;8179;59.364;18.018;2024-03-23T12:48:23;99194.84;;;9.80;76.53
16148;BME280;8179;59.364;18.018;2024-03-23T12:50:54;99185.38;;;10.00;74.94
16148;BME280;8179;59.364;18.018;2024-03-23T12:53:21;99180.97;;;10.04;74.41
16148;BME280;8179;59.364;18.018;2024-03-23T12:55:47;99167.34;;;9.96;75.32
16148;BME280;8179;59.364;18.018;2024-03-23T12:58:14;99189.09;;;10.04;75.51
16148;BME280;8179;59.364;18.018;2024-03-23T13:00:40;99189.09;;;9.82;73.35
16148;BME280;8179;59.364;18.018;2024-03-23T13:03:07;99176.38;;;9.69;73.75
16148;BME280;8179;59.364;18.018;2024-03-23T13:05:38;99185.09;;;9.43;73.47
16148;BME280;8179;59.364;18.018;2024-03-23T13:08:07;99188.75;;;9.25;74.40
16148;BME280;8179;59.364;18.018;2024-03-23T13:10:33;99193.06;;;9.12;74.53
16148;BME280;8179;59.364;18.018;2024-03-23T13:13:00;99196.19;;;9.19;75.82
16148;BME280;8179;59.364;18.018;2024-03-23T13:15:25;99185.75;;;9.13;74.22
16148;BME280;8179;59.364;18.018;2024-03-23T13:17:52;99184.66;;;9.00;75.59
16148;BME280;8179;59.364;18.018;2024-03-23T13:20:19;99182.53;;;9.11;74.74
16148;BME280;8179;59.364;18.018;2024-03-23T13:22:46;99186.03;;;9.25;75.29
16148;BME280;8179;59.364;18.018;2024-03-23T13:25:14;99180.53;;;9.16;73.73
16148;BME280;8179;59.364;18.018;2024-03-23T13:27:41;99188.94;;;9.15;73.88
16148;BME280;8179;59.364;18.018;2024-03-23T13:30:09;99189.97;;;9.19;74.92
16148;BME280;8179;59.364;18.018;2024-03-23T13:32:35;99193.44;;;9.47;75.86
16148;BME280;8179;59.364;18.018;2024-03-23T13:35:03;99179.09;;;9.69;76.77
16148;BME280;8179;59.364;18.018;2024-03-23T13:37:29;99206.03;;;9.65;79.19
16148;BME280;8179;59.364;18.018;2024-03-23T13:39:56;99201.66;;;9.42;82.73
16148;BME280;8179;59.364;18.018;2024-03-23T13:42:23;99211.34;;;9.20;85.37
16148;BME280;8179;59.364;18.018;2024-03-23T13:44:51;99204.22;;;9.11;86.55
16148;BME280;8179;59.364;18.018;2024-03-23T13:47:17;99200.72;;;8.69;88.96
16148;BME280;8179;59.364;18.018;2024-03-23T13:49:44;99198.44;;;8.43;92.43
16148;BME280;8179;59.364;18.018;2024-03-23T13:52:10;99200.78;;;8.50;94.91
16148;BME280;8179;59.364;18.018;2024-03-23T13:54:36;99205.19;;;8.46;94.29